createdAt,value
2023-01-29T00:01:45.058Z,24.80
2023-01-29T00:07:52.678Z,25.00
2023-01-29T00:14:00.930Z,24.70
2023-01-29T00:20:11.571Z,24.60
2023-01-29T00:26:21.248Z,24.50
2023-01-29T00:32:35.320Z,24.50
2023-01-29T00:38:46.562Z,24.80
2023-01-29T00:45:00.564Z,24.90
2023-01-29T00:51:09.477Z,24.70
2023-01-29T00:57:19.200Z,24.50
2023-01-29T01:03:27.776Z,24.40
2023-01-29T01:10:12.187Z,24.60
2023-01-29T01:16:22.406Z,24.80
2023-01-29T01:22:37.402Z,24.60
2023-01-29T01:28:46.756Z,24.40
2023-01-29T01:34:59.789Z,24.30
2023-01-29T01:41:08.967Z,24.30
2023-01-29T01:47:20.201Z,24.10
2023-01-29T01:53:31.221Z,24.00
2023-01-29T01:59:40.343Z,24.00
2023-01-29T02:06:07.634Z,23.90
2023-01-29T02:12:15.578Z,23.90
2023-01-29T02:18:24.117Z,23.80
2023-01-29T02:25:09.147Z,23.80
2023-01-29T02:31:23.583Z,23.70
2023-01-29T02:37:40.382Z,23.70
2023-01-29T02:43:49.195Z,23.70
2023-01-29T02:50:05.681Z,23.60
2023-01-29T02:56:19.115Z,23.50
2023-01-29T03:02:34.571Z,23.50
2023-01-29T03:08:46.654Z,23.50
2023-01-29T03:15:14.039Z,23.40
2023-01-29T03:21:41.781Z,23.40
2023-01-29T03:28:10.803Z,23.30
2023-01-29T03:34:25.023Z,23.30
2023-01-29T03:40:36.632Z,23.20
2023-01-29T03:46:51.927Z,23.20
2023-01-29T03:53:03.584Z,23.10
2023-01-29T03:59:17.093Z,23.00
2023-01-29T04:05:29.956Z,23.00
2023-01-29T04:11:40.431Z,22.90
2023-01-29T04:17:51.333Z,22.80
2023-01-29T04:24:00.656Z,22.80
2023-01-29T04:30:19.065Z,22.70
2023-01-29T04:36:36.105Z,22.70
2023-01-29T04:42:47.623Z,22.60
2023-01-29T04:49:08.506Z,22.50
2023-01-29T04:55:20.583Z,22.50
2023-01-29T05:01:36.629Z,22.40
2023-01-29T05:07:44.135Z,22.40
2023-01-29T05:13:51.660Z,22.40
2023-01-29T05:20:01.097Z,22.40
2023-01-29T05:26:30.449Z,22.30
2023-01-29T05:32:41.319Z,22.30
2023-01-29T05:38:51.617Z,22.20
2023-01-29T05:45:01.031Z,22.10
2023-01-29T05:51:12.827Z,22.10
2023-01-29T05:57:23.752Z,22.10
2023-01-29T06:03:35.773Z,22.10
2023-01-29T06:09:48.556Z,22.00
2023-01-29T06:15:58.438Z,22.00
2023-01-29T06:22:09.199Z,21.90
2023-01-29T06:28:21.481Z,21.90
2023-01-29T06:34:32.680Z,21.90
2023-01-29T06:40:41.656Z,21.80
2023-01-29T06:46:51.587Z,21.80
2023-01-29T06:53:02.700Z,21.70
2023-01-29T06:59:14.605Z,21.60
2023-01-29T07:05:24.165Z,21.70
2023-01-29T07:11:33.371Z,21.60
2023-01-29T07:17:42.633Z,21.60
2023-01-29T07:23:51.615Z,21.70
2023-01-29T07:30:00.698Z,22.00
2023-01-29T07:36:14.688Z,21.90
2023-01-29T07:42:25.892Z,21.70
2023-01-29T07:48:37.064Z,21.60
2023-01-29T07:54:49.484Z,21.60
2023-01-29T08:01:00.647Z,21.50
2023-01-29T08:07:13.630Z,21.80
2023-01-29T08:13:21.071Z,22.00
2023-01-29T08:19:31.037Z,21.80
2023-01-29T08:25:43.078Z,21.60
2023-01-29T08:31:54.336Z,21.50
2023-01-29T08:38:08.519Z,21.70
2023-01-29T08:44:18.354Z,22.00
2023-01-29T08:50:29.289Z,21.90
2023-01-29T08:56:41.446Z,21.70
2023-01-29T09:02:52.021Z,21.50
2023-01-29T09:09:01.061Z,21.70
2023-01-29T09:15:11.423Z,22.00
2023-01-29T09:21:19.800Z,21.80
2023-01-29T09:27:29.702Z,21.60
2023-01-29T09:33:38.848Z,21.50
2023-01-29T09:39:48.196Z,21.70
2023-01-29T09:46:01.063Z,22.00
2023-01-29T09:52:13.149Z,21.90
2023-01-29T09:58:26.975Z,21.70
2023-01-29T10:04:54.220Z,21.50
2023-01-29T10:11:00.779Z,21.80
2023-01-29T10:17:14.437Z,21.90
2023-01-29T10:23:28.899Z,21.80
2023-01-29T10:29:39.575Z,21.60
2023-01-29T10:35:50.214Z,21.60
2023-01-29T10:42:08.253Z,21.90
2023-01-29T10:48:39.278Z,21.90
2023-01-29T10:54:56.168Z,21.80
2023-01-29T11:01:02.426Z,21.60
2023-01-29T11:07:13.343Z,21.60
2023-01-29T11:13:22.574Z,21.90
2023-01-29T11:19:42.684Z,21.90
2023-01-29T11:25:56.888Z,21.80
2023-01-29T11:32:08.397Z,21.60
2023-01-29T11:38:24.609Z,21.70
2023-01-29T11:44:38.243Z,21.90
2023-01-29T11:50:49.278Z,21.90
2023-01-29T11:56:57.920Z,21.70
2023-01-29T12:03:13.921Z,21.50
2023-01-29T12:09:22.940Z,21.70
2023-01-29T12:15:33.906Z,21.90
2023-01-29T12:21:50.724Z,21.90
2023-01-29T12:28:00.230Z,21.70
2023-01-29T12:34:12.140Z,21.90
2023-01-29T12:40:24.568Z,22.10
2023-01-29T12:46:34.395Z,22.30
2023-01-29T12:52:45.789Z,22.60
2023-01-29T12:58:55.011Z,22.80
2023-01-29T13:05:06.267Z,23.00
2023-01-29T13:11:17.213Z,23.30
2023-01-29T13:17:30.342Z,23.40
2023-01-29T13:23:40.401Z,23.20
2023-01-29T13:29:49.378Z,23.10
2023-01-29T13:36:01.210Z,23.20
2023-01-29T13:42:20.200Z,23.40
2023-01-29T13:48:30.130Z,23.60
2023-01-29T13:54:40.055Z,23.50
2023-01-29T14:00:56.961Z,23.30
2023-01-29T14:07:04.817Z,23.30
2023-01-29T14:19:54.937Z,23.70
2023-01-29T14:26:05.382Z,23.50
2023-01-29T14:32:21.267Z,23.30
2023-01-29T14:38:31.146Z,23.10
2023-01-29T14:45:03.904Z,23.40
2023-01-29T14:51:16.485Z,23.70
2023-01-29T14:57:27.229Z,23.90
2023-01-29T15:03:41.723Z,23.80
2023-01-29T15:09:54.179Z,23.60
2023-01-29T15:16:06.686Z,23.50
2023-01-29T15:22:20.563Z,23.70
2023-01-29T15:28:29.665Z,24.00
2023-01-29T15:34:43.045Z,23.90
2023-01-29T15:40:59.482Z,23.70
2023-01-29T15:47:11.018Z,23.80
2023-01-29T15:53:24.647Z,24.10
2023-01-29T15:59:41.049Z,24.10
2023-01-29T16:05:50.171Z,23.90
2023-01-29T16:12:00.761Z,23.70
2023-01-29T16:18:24.965Z,23.70
2023-01-29T16:24:40.170Z,24.00
2023-01-29T16:30:58.235Z,24.10
2023-01-29T16:37:11.144Z,23.80
2023-01-29T16:50:33.146Z,24.00
2023-01-29T16:56:43.785Z,24.20
2023-01-29T17:02:55.383Z,23.90
2023-01-29T17:09:04.403Z,23.70
2023-01-29T17:15:36.958Z,23.50
2023-01-29T17:21:47.176Z,23.70
2023-01-29T17:27:55.189Z,23.90
2023-01-29T17:34:04.550Z,24.10
2023-01-29T17:40:26.175Z,23.90
2023-01-29T17:46:35.456Z,23.80
2023-01-29T17:52:45.739Z,23.70
2023-01-29T17:58:55.413Z,23.60
2023-01-29T18:05:07.971Z,23.80
2023-01-29T18:11:17.558Z,24.00
2023-01-29T18:17:28.929Z,24.00
2023-01-29T18:23:39.685Z,23.90
2023-01-29T18:29:51.152Z,23.70
2023-01-29T18:36:05.552Z,23.60
2023-01-29T18:42:16.590Z,23.80
2023-01-29T18:48:27.353Z,23.90
2023-01-29T18:54:36.764Z,24.00
2023-01-29T19:00:51.359Z,23.90
2023-01-29T19:07:01.611Z,23.80
2023-01-29T19:13:11.385Z,23.90
2023-01-29T19:19:21.309Z,24.00
2023-01-29T19:25:31.947Z,23.80
2023-01-29T19:31:43.172Z,23.70
2023-01-29T19:37:50.799Z,23.60
2023-01-29T19:44:01.144Z,23.80
2023-01-29T19:50:09.930Z,24.00
2023-01-29T19:56:21.379Z,24.00
2023-01-29T20:02:33.240Z,23.90
2023-01-29T20:08:47.298Z,23.70
2023-01-29T20:14:55.044Z,23.60
2023-01-29T20:21:05.849Z,23.70
2023-01-29T20:27:16.033Z,23.90
2023-01-29T20:33:24.359Z,23.70
2023-01-29T20:39:34.986Z,23.60
2023-01-29T20:45:48.971Z,23.70
2023-01-29T20:51:58.662Z,23.80
2023-01-29T20:58:09.187Z,24.00
2023-01-29T21:04:21.965Z,23.80
2023-01-29T21:10:33.695Z,23.70
2023-01-29T21:16:43.825Z,23.60
2023-01-29T21:22:51.420Z,23.70
2023-01-29T21:29:03.379Z,23.90
2023-01-29T21:35:17.131Z,24.00
2023-01-29T21:41:46.607Z,23.80
2023-01-29T21:47:55.954Z,23.70
2023-01-29T21:54:07.185Z,23.50
2023-01-29T22:00:22.250Z,23.60
2023-01-29T22:06:33.513Z,23.80
2023-01-29T22:12:46.193Z,23.90
2023-01-29T22:18:54.149Z,23.80
2023-01-29T22:25:07.066Z,23.60
2023-01-29T22:31:17.130Z,23.50
2023-01-29T22:37:26.077Z,23.70
2023-01-29T22:43:35.291Z,23.90
2023-01-29T22:49:43.777Z,23.80
2023-01-29T22:55:58.202Z,23.60
2023-01-29T23:02:10.505Z,23.60
2023-01-29T23:08:21.801Z,23.80
2023-01-29T23:14:31.812Z,23.90
2023-01-29T23:20:40.802Z,23.80
2023-01-29T23:27:06.945Z,23.60
2023-01-29T23:33:17.765Z,23.50
2023-01-29T23:39:25.914Z,23.70
2023-01-29T23:45:36.159Z,23.90
2023-01-29T23:51:44.962Z,23.90
2023-01-29T23:57:56.120Z,23.70
